createdAt,value
2018-04-16T00:00:48.580Z,74.70
2018-04-16T00:03:21.215Z,74.50
2018-04-16T00:05:54.721Z,74.70
2018-04-16T00:08:27.332Z,74.90
2018-04-16T00:10:59.931Z,76.80
2018-04-16T00:13:32.555Z,75.10
2018-04-16T00:16:05.155Z,75.80
2018-04-16T00:18:37.779Z,75.60
2018-04-16T00:21:11.140Z,74.60
2018-04-16T00:23:43.796Z,74.50
2018-04-16T00:26:16.390Z,76.10
2018-04-16T00:28:49.027Z,75.80
2018-04-16T00:31:21.623Z,76.50
2018-04-16T00:33:59.995Z,77.30
2018-04-16T00:36:38.368Z,77.80
2018-04-16T00:42:27.436Z,78.30
2018-04-16T00:45:05.740Z,75.60
2018-04-16T00:47:44.896Z,76.10
2018-04-16T00:50:24.054Z,75.70
2018-04-16T00:53:02.391Z,75.70
2018-04-16T00:55:40.767Z,76.70
2018-04-16T00:58:19.096Z,76.10
2018-04-16T01:00:57.509Z,75.50
2018-04-16T01:03:35.895Z,74.40
2018-04-16T01:06:14.153Z,74.60
2018-04-16T01:08:52.547Z,74.10
2018-04-16T01:11:30.831Z,75.80
2018-04-16T01:14:09.055Z,75.40
2018-04-16T01:16:47.525Z,76.10
2018-04-16T01:19:25.899Z,75.60
2018-04-16T01:22:04.916Z,76.40
2018-04-16T01:24:43.388Z,76.10
2018-04-16T01:27:22.431Z,78.80
2018-04-16T01:30:01.392Z,76.10
2018-04-16T01:32:40.421Z,77.00
2018-04-16T01:35:19.559Z,76.70
2018-04-16T01:37:57.828Z,76.50
2018-04-16T01:40:36.247Z,78.70
2018-04-16T01:43:14.587Z,77.20
2018-04-16T01:45:53.548Z,76.80
2018-04-16T01:48:31.814Z,76.90
2018-04-16T01:51:11.026Z,78.90
2018-04-16T01:53:49.253Z,78.80
2018-04-16T01:56:27.470Z,78.20
2018-04-16T01:59:05.751Z,78.20
2018-04-16T02:01:44.106Z,76.10
2018-04-16T02:04:22.294Z,76.50
2018-04-16T02:07:00.574Z,77.10
2018-04-16T02:09:38.826Z,78.10
2018-04-16T02:12:17.863Z,77.20
2018-04-16T02:14:56.889Z,77.20
2018-04-16T02:17:35.091Z,77.00
2018-04-16T02:20:13.256Z,76.80
2018-04-16T02:22:52.281Z,77.70
2018-04-16T02:25:30.566Z,77.60
2018-04-16T02:28:09.643Z,77.60
2018-04-16T02:30:47.832Z,77.50
2018-04-16T02:33:26.248Z,78.90
2018-04-16T02:36:04.610Z,78.60
2018-04-16T02:38:43.019Z,78.60
2018-04-16T02:41:21.243Z,78.00
2018-04-16T02:43:59.499Z,78.60
2018-04-16T02:46:37.754Z,78.60
2018-04-16T02:49:16.193Z,78.40
2018-04-16T02:51:54.598Z,77.10
2018-04-16T02:54:33.731Z,77.90
2018-04-16T02:57:12.187Z,77.90
2018-04-16T02:59:50.375Z,77.80
2018-04-16T03:02:28.604Z,77.20
2018-04-16T03:08:18.555Z,79.60
2018-04-16T03:10:56.798Z,78.10
2018-04-16T03:13:35.188Z,76.90
2018-04-16T03:19:26.048Z,76.60
2018-04-16T03:22:04.311Z,76.90
2018-04-16T03:24:42.608Z,77.20
2018-04-16T03:27:21.635Z,77.70
2018-04-16T03:30:00.017Z,77.60
2018-04-16T03:32:38.229Z,78.00
2018-04-16T03:35:16.624Z,78.20
2018-04-16T03:37:55.570Z,77.60
2018-04-16T03:40:34.600Z,78.90
2018-04-16T03:43:12.803Z,78.80
2018-04-16T03:45:51.121Z,77.30
2018-04-16T03:48:29.520Z,77.50
2018-04-16T03:54:19.410Z,77.00
2018-04-16T03:56:52.012Z,77.60
2018-04-16T03:59:25.407Z,78.60
2018-04-16T04:01:58.009Z,78.60
2018-04-16T04:04:31.396Z,78.60
2018-04-16T04:07:03.996Z,78.50
2018-04-16T04:09:36.639Z,79.20
2018-04-16T04:12:09.240Z,79.00
2018-04-16T04:14:41.887Z,78.90
2018-04-16T04:17:14.502Z,78.90
2018-04-16T04:19:47.138Z,79.50
2018-04-16T04:22:19.743Z,79.30
2018-04-16T04:25:04.289Z,80.90
2018-04-16T04:27:48.688Z,79.80
2018-04-16T04:30:39.984Z,81.50
2018-04-16T04:33:12.598Z,82.40
2018-04-16T04:35:45.218Z,80.90
2018-04-16T04:38:18.578Z,80.80
2018-04-16T04:40:51.223Z,80.60
2018-04-16T04:43:24.604Z,80.40
2018-04-16T04:45:57.288Z,80.40
2018-04-16T04:48:29.888Z,80.20
2018-04-16T04:51:02.524Z,80.30
2018-04-16T04:53:35.122Z,80.50
2018-04-16T04:56:07.768Z,81.00
2018-04-16T04:58:40.363Z,80.80
2018-04-16T05:01:13.011Z,80.10
2018-04-16T05:03:46.377Z,81.30
2018-04-16T05:06:19.768Z,81.60
2018-04-16T05:08:52.368Z,81.50
2018-04-16T05:11:24.999Z,81.00
2018-04-16T05:13:57.608Z,81.00
2018-04-16T05:16:30.220Z,82.10
2018-04-16T05:19:02.825Z,81.50
2018-04-16T05:21:35.446Z,81.60
2018-04-16T05:24:08.811Z,82.20
2018-04-16T05:26:41.427Z,82.10
2018-04-16T05:29:14.028Z,82.40
2018-04-16T05:31:47.415Z,81.60
2018-04-16T05:34:20.018Z,81.40
2018-04-16T05:36:52.663Z,81.70
2018-04-16T05:39:25.283Z,82.70
2018-04-16T05:41:57.918Z,82.20
2018-04-16T05:44:30.510Z,82.60
2018-04-16T05:47:03.151Z,83.20
2018-04-16T05:49:35.751Z,81.60
2018-04-16T05:52:08.379Z,83.20
2018-04-16T05:54:41.743Z,83.40
2018-04-16T05:57:14.373Z,83.20
2018-04-16T05:59:47.739Z,82.60
2018-04-16T06:02:20.384Z,83.00
2018-04-16T06:04:52.981Z,82.50
2018-04-16T06:07:25.619Z,82.00
2018-04-16T06:09:58.234Z,82.10
2018-04-16T06:12:30.877Z,83.30
2018-04-16T06:15:03.486Z,82.70
2018-04-16T06:17:36.131Z,81.60
2018-04-16T06:20:08.735Z,81.60
2018-04-16T06:22:41.375Z,81.80
2018-04-16T06:25:13.975Z,84.80
2018-04-16T06:27:46.595Z,84.80
2018-04-16T06:30:19.199Z,83.50
2018-04-16T06:32:51.843Z,84.30
2018-04-16T06:35:24.447Z,83.60
2018-04-16T06:37:57.085Z,83.20
2018-04-16T06:40:29.708Z,82.80
2018-04-16T06:43:02.359Z,83.40
2018-04-16T06:45:34.962Z,83.80
2018-04-16T06:48:07.584Z,83.40
2018-04-16T06:50:40.188Z,83.70
2018-04-16T06:53:12.888Z,83.00
2018-04-16T06:55:45.454Z,83.50
2018-04-16T06:58:18.079Z,83.50
2018-04-16T07:00:51.472Z,84.40
2018-04-16T07:03:24.106Z,84.30
2018-04-16T07:05:56.727Z,84.30
2018-04-16T07:08:29.383Z,84.30
2018-04-16T07:11:02.005Z,84.30
2018-04-16T07:13:34.650Z,83.40
2018-04-16T07:16:08.048Z,84.60
2018-04-16T07:18:40.665Z,84.60
2018-04-16T07:21:14.048Z,85.20
2018-04-16T07:23:47.439Z,85.00
2018-04-16T07:26:20.043Z,84.20
2018-04-16T07:28:52.679Z,85.40
2018-04-16T07:31:25.275Z,84.90
2018-04-16T07:33:57.905Z,83.40
2018-04-16T07:36:30.508Z,83.50
2018-04-16T07:39:03.155Z,83.50
2018-04-16T07:41:35.755Z,83.70
2018-04-16T07:44:08.376Z,83.00
2018-04-16T07:46:40.972Z,83.20
2018-04-16T07:49:13.591Z,83.30
2018-04-16T07:51:46.962Z,84.10
2018-04-16T07:54:19.616Z,84.00
2018-04-16T07:56:52.216Z,83.70
2018-04-16T07:59:24.855Z,82.80
2018-04-16T08:01:57.459Z,83.30
2018-04-16T08:04:30.877Z,85.00
2018-04-16T08:07:04.247Z,85.20
2018-04-16T08:09:36.891Z,85.00
2018-04-16T08:12:09.487Z,86.30
2018-04-16T08:14:42.111Z,87.40
2018-04-16T08:17:15.189Z,86.10
2018-04-16T08:19:47.813Z,86.50
2018-04-16T08:22:20.424Z,86.00
2018-04-16T08:24:53.074Z,86.00
2018-04-16T08:27:25.683Z,85.50
2018-04-16T08:29:58.329Z,85.80
2018-04-16T08:32:30.939Z,85.70
2018-04-16T08:35:03.581Z,85.20
2018-04-16T08:37:36.179Z,85.80
2018-04-16T08:40:08.804Z,86.00
2018-04-16T08:42:41.404Z,86.60
2018-04-16T08:45:14.037Z,86.10
2018-04-16T08:47:46.648Z,86.50
2018-04-16T08:50:20.040Z,86.40
2018-04-16T08:52:52.675Z,86.20
2018-04-16T08:55:25.290Z,86.40
2018-04-16T08:57:57.894Z,86.90
2018-04-16T09:00:30.517Z,86.70
2018-04-16T09:03:03.115Z,87.20
2018-04-16T09:05:36.508Z,86.10
2018-04-16T09:08:09.113Z,85.90
2018-04-16T09:10:42.503Z,85.60
2018-04-16T09:13:15.121Z,85.60
2018-04-16T09:15:48.511Z,85.70
2018-04-16T09:18:21.112Z,85.70
2018-04-16T09:20:54.511Z,86.20
2018-04-16T09:23:27.119Z,86.20
2018-04-16T09:26:00.512Z,85.90
2018-04-16T09:28:33.116Z,85.80
2018-04-16T09:31:05.736Z,84.90
2018-04-16T09:33:38.334Z,85.10
2018-04-16T09:36:10.964Z,86.60
2018-04-16T09:38:43.563Z,84.60
2018-04-16T09:41:16.195Z,85.10
2018-04-16T09:43:48.796Z,84.90
2018-04-16T09:46:21.407Z,84.20
2018-04-16T09:48:54.005Z,84.90
2018-04-16T09:51:26.626Z,84.00
2018-04-16T09:53:59.224Z,83.80
2018-04-16T09:56:31.848Z,83.60
2018-04-16T09:59:04.439Z,84.20
2018-04-16T10:01:38.872Z,84.20
2018-04-16T10:04:11.476Z,84.10
2018-04-16T10:06:44.091Z,84.30
2018-04-16T10:09:16.708Z,83.70
2018-04-16T10:11:49.336Z,83.80
2018-04-16T10:14:21.939Z,83.70
2018-04-16T10:16:54.566Z,83.30
2018-04-16T10:19:27.163Z,84.10
2018-04-16T10:21:59.792Z,83.50
2018-04-16T10:24:32.408Z,83.20
2018-04-16T10:27:05.031Z,82.70
2018-04-16T10:29:37.640Z,82.80
2018-04-16T10:32:10.263Z,83.50
2018-04-16T10:34:42.871Z,82.90
2018-04-16T10:37:15.491Z,82.30
2018-04-16T10:39:48.106Z,81.90
2018-04-16T10:42:20.736Z,82.00
2018-04-16T10:44:53.337Z,81.90
2018-04-16T10:47:25.964Z,82.50
2018-04-16T10:49:58.566Z,82.90
2018-04-16T10:52:31.192Z,81.40
2018-04-16T10:55:04.568Z,81.80
2018-04-16T10:57:37.191Z,80.90
2018-04-16T11:00:10.567Z,81.60
2018-04-16T11:02:43.188Z,81.60
2018-04-16T11:05:16.556Z,81.00
2018-04-16T11:07:49.179Z,81.00
2018-04-16T11:10:21.776Z,81.30
2018-04-16T11:12:55.159Z,81.10
2018-04-16T11:15:27.768Z,81.10
2018-04-16T11:18:01.167Z,81.40
2018-04-16T11:20:33.767Z,81.30
2018-04-16T11:23:06.397Z,81.00
2018-04-16T11:25:38.994Z,80.90
2018-04-16T11:28:11.620Z,81.10
2018-04-16T11:30:44.223Z,79.60
2018-04-16T11:33:16.849Z,79.80
2018-04-16T11:35:49.450Z,79.90
2018-04-16T11:38:22.072Z,79.70
2018-04-16T11:40:54.669Z,79.10
2018-04-16T11:43:27.286Z,79.80
2018-04-16T11:45:59.884Z,77.50
2018-04-16T11:48:32.512Z,77.40
2018-04-16T11:51:05.879Z,77.70
2018-04-16T11:53:38.513Z,76.90
2018-04-16T11:56:11.118Z,78.80
2018-04-16T11:58:43.741Z,77.70
2018-04-16T12:01:16.339Z,76.90
2018-04-16T12:03:48.951Z,78.30
2018-04-16T12:06:22.316Z,77.20
2018-04-16T12:08:54.936Z,77.10
2018-04-16T12:11:27.536Z,76.50
2018-04-16T12:14:00.927Z,76.90
2018-04-16T12:16:33.556Z,76.60
2018-04-16T12:19:06.972Z,75.40
2018-04-16T12:21:39.587Z,75.40
2018-04-16T12:24:12.211Z,76.10
2018-04-16T12:26:44.816Z,75.10
2018-04-16T12:29:17.632Z,75.00
2018-04-16T12:31:50.279Z,75.40
2018-04-16T12:34:22.928Z,74.40
2018-04-16T12:36:55.539Z,75.10
2018-04-16T12:39:28.199Z,75.60
2018-04-16T12:42:01.571Z,76.40
2018-04-16T12:44:34.196Z,76.40
2018-04-16T12:47:07.565Z,75.50
2018-04-16T12:49:40.211Z,75.50
2018-04-16T12:52:12.813Z,75.60
2018-04-16T12:54:45.451Z,75.80
2018-04-16T12:57:18.056Z,75.00
2018-04-16T12:59:50.711Z,75.60
2018-04-16T13:02:23.348Z,76.20
2018-04-16T13:04:56.760Z,73.80
2018-04-16T13:07:30.127Z,75.40
2018-04-16T13:10:02.771Z,75.30
2018-04-16T13:12:36.138Z,75.80
2018-04-16T13:15:08.768Z,75.80
2018-04-16T13:17:42.131Z,76.40
2018-04-16T13:20:14.751Z,76.40
2018-04-16T13:22:47.343Z,75.50
2018-04-16T13:25:20.040Z,76.20
2018-04-16T13:27:53.423Z,76.50
2018-04-16T13:30:26.068Z,76.60
2018-04-16T13:32:58.669Z,75.90
2018-04-16T13:35:31.311Z,75.90
2018-04-16T13:38:03.908Z,75.80
2018-04-16T13:40:36.582Z,74.80
2018-04-16T13:43:09.215Z,76.00
2018-04-16T13:45:41.859Z,75.70
2018-04-16T13:48:14.469Z,75.60
2018-04-16T13:50:47.086Z,76.70
2018-04-16T13:53:20.486Z,76.60
2018-04-16T13:55:53.900Z,76.90
2018-04-16T13:58:33.073Z,76.80
2018-04-16T14:01:05.760Z,76.70
2018-04-16T14:03:38.502Z,76.20
2018-04-16T14:06:12.004Z,77.20
2018-04-16T14:08:44.611Z,77.20
2018-04-16T14:11:17.233Z,76.50
2018-04-16T14:13:50.652Z,77.50
2018-04-16T14:16:23.318Z,77.40
2018-04-16T14:18:56.902Z,78.10
2018-04-16T14:21:29.580Z,78.00
2018-04-16T14:24:02.188Z,78.50
2018-04-16T14:26:34.857Z,78.80
2018-04-16T14:29:07.488Z,79.80
2018-04-16T14:31:40.118Z,79.20
2018-04-16T14:34:12.717Z,78.80
2018-04-16T14:36:45.356Z,78.50
2018-04-16T14:39:17.954Z,78.90
2018-04-16T14:41:50.652Z,78.50
2018-04-16T14:44:23.248Z,79.60
2018-04-16T14:46:55.899Z,79.60
2018-04-16T14:49:28.500Z,80.50
2018-04-16T14:52:01.127Z,79.80
2018-04-16T14:54:34.494Z,79.50
2018-04-16T14:57:07.147Z,79.40
2018-04-16T14:59:39.746Z,80.10
2018-04-16T15:02:12.383Z,80.20
2018-04-16T15:04:44.984Z,80.30
2018-04-16T15:07:17.636Z,80.30
2018-04-16T15:09:50.235Z,81.10
2018-04-16T15:12:22.895Z,80.00
2018-04-16T15:14:55.491Z,80.00
2018-04-16T15:17:28.140Z,80.60
2018-04-16T15:20:00.740Z,80.10
2018-04-16T15:22:33.378Z,80.10
2018-04-16T15:25:06.748Z,80.00
2018-04-16T15:27:39.426Z,80.00
2018-04-16T15:30:12.052Z,80.00
2018-04-16T15:32:51.847Z,80.50
2018-04-16T15:35:24.461Z,80.50
2018-04-16T15:37:57.083Z,80.60
2018-04-16T15:40:30.447Z,81.20
2018-04-16T15:43:03.088Z,81.10
2018-04-16T15:45:36.548Z,81.00
2018-04-16T15:48:09.191Z,81.00
2018-04-16T15:50:42.560Z,80.90
2018-04-16T15:53:15.204Z,80.80
2018-04-16T15:55:47.804Z,81.10
2018-04-16T15:58:20.482Z,81.00
2018-04-16T16:00:53.843Z,81.10
2018-04-16T16:03:26.483Z,81.00
2018-04-16T16:05:59.888Z,81.60
2018-04-16T16:08:33.307Z,81.60
2018-04-16T16:11:06.671Z,82.50
2018-04-16T16:13:39.385Z,83.30
2018-04-16T16:16:11.987Z,81.40
2018-04-16T16:18:44.632Z,81.90
2018-04-16T16:21:17.284Z,81.70
2018-04-16T16:23:49.933Z,81.80
2018-04-16T16:26:22.572Z,82.10
2018-04-16T16:29:08.594Z,82.30
2018-04-16T16:31:41.187Z,82.20
2018-04-16T16:34:13.827Z,83.30
2018-04-16T16:36:46.543Z,82.10
2018-04-16T16:39:19.160Z,82.00
2018-04-16T16:41:51.779Z,82.70
2018-04-16T16:44:24.478Z,82.50
2018-04-16T16:46:57.151Z,82.20
2018-04-16T16:49:29.888Z,82.10
2018-04-16T16:52:17.173Z,82.00
2018-04-16T16:54:49.816Z,82.40
2018-04-16T16:57:22.642Z,82.60
2018-04-16T16:59:55.334Z,82.80
2018-04-16T17:02:28.095Z,83.20
2018-04-16T17:05:01.428Z,83.20
2018-04-16T17:07:34.036Z,83.20
2018-04-16T17:10:07.037Z,83.50
2018-04-16T17:12:39.787Z,82.90
2018-04-16T17:15:12.515Z,82.90
2018-04-16T17:17:45.891Z,83.30
2018-04-16T17:20:18.673Z,83.30
2018-04-16T17:22:52.307Z,84.00
2018-04-16T17:25:25.011Z,84.00
2018-04-16T17:27:58.606Z,84.20
2018-04-16T17:30:31.343Z,84.10
2018-04-16T17:33:04.055Z,83.70
2018-04-16T17:35:50.907Z,84.00
2018-04-16T17:38:23.722Z,84.20
2018-04-16T17:40:56.627Z,84.40
2018-04-16T17:43:29.259Z,84.90
2018-04-16T17:46:02.893Z,85.20
2018-04-16T17:48:35.720Z,85.30
2018-04-16T17:51:08.395Z,85.60
2018-04-16T17:53:41.005Z,85.50
2018-04-16T17:56:13.733Z,85.10
2018-04-16T18:01:48.494Z,85.40
2018-04-16T18:04:21.147Z,84.60
2018-04-16T18:06:53.841Z,84.80
2018-04-16T18:09:26.538Z,85.30
2018-04-16T18:11:59.366Z,85.30
2018-04-16T18:14:32.859Z,86.10
2018-04-16T18:17:05.485Z,86.00
2018-04-16T18:19:38.939Z,85.10
2018-04-16T18:22:11.579Z,85.10
2018-04-16T18:24:46.176Z,85.00
2018-04-16T18:27:18.804Z,85.00
2018-04-16T18:29:51.423Z,84.90
2018-04-16T18:32:24.830Z,84.60
2018-04-16T18:34:58.238Z,84.60
2018-04-16T18:37:31.619Z,83.50
2018-04-16T18:40:04.229Z,83.50
2018-04-16T18:42:36.915Z,84.20
2018-04-16T18:45:09.523Z,84.30
2018-04-16T18:47:42.912Z,84.90
2018-04-16T18:50:15.528Z,84.30
2018-04-16T18:52:48.915Z,84.40
2018-04-16T18:55:21.543Z,84.50
2018-04-16T18:57:54.178Z,84.30
2018-04-16T19:00:27.571Z,84.80
2018-04-16T19:03:00.206Z,84.60
2018-04-16T19:05:32.805Z,84.30
2018-04-16T19:08:05.422Z,84.20
2018-04-16T19:10:38.855Z,84.10
2018-04-16T19:13:11.560Z,84.10
2018-04-16T19:15:44.150Z,84.80
2018-04-16T19:18:16.787Z,85.10
2018-04-16T19:20:55.049Z,85.50
2018-04-16T19:23:38.832Z,86.10
2018-04-16T19:26:11.482Z,86.00
2018-04-16T19:28:44.114Z,86.20
2018-04-16T19:31:16.724Z,86.40
2018-04-16T19:33:55.860Z,87.10
2018-04-16T19:36:28.464Z,87.10
2018-04-16T19:39:01.952Z,87.30
2018-04-16T19:41:41.123Z,87.60
2018-04-16T19:44:13.791Z,87.50
2018-04-16T19:46:47.212Z,88.10
2018-04-16T19:49:25.488Z,88.00
2018-04-16T19:51:58.116Z,88.10
2018-04-16T19:54:30.767Z,88.10
2018-04-16T19:57:09.056Z,88.00
2018-04-16T19:59:41.799Z,87.30
2018-04-16T20:02:20.174Z,88.30
2018-04-16T20:04:52.827Z,88.80
2018-04-16T20:07:25.431Z,89.00
2018-04-16T20:09:58.231Z,89.60
2018-04-16T20:12:30.911Z,89.70
2018-04-16T20:15:03.577Z,89.80
2018-04-16T20:17:36.194Z,89.20
2018-04-16T20:20:08.828Z,88.60
2018-04-16T20:22:41.427Z,88.50
2018-04-16T20:25:14.063Z,89.30
2018-04-16T20:27:47.438Z,90.00
2018-04-16T20:30:20.931Z,90.00
2018-04-16T20:32:59.935Z,90.20
2018-04-16T20:35:33.358Z,89.90
2018-04-16T20:38:05.978Z,89.80
2018-04-16T20:40:38.632Z,90.00
2018-04-16T20:43:12.003Z,90.10
2018-04-16T20:45:44.656Z,90.10
2018-04-16T20:48:17.264Z,90.30
2018-04-16T20:50:49.912Z,90.50
2018-04-16T20:53:23.311Z,90.80
2018-04-16T20:55:55.948Z,90.80
2018-04-16T20:58:28.557Z,90.90
2018-04-16T21:01:01.208Z,90.90
2018-04-16T21:03:34.584Z,91.10
2018-04-16T21:06:07.208Z,91.10
2018-04-16T21:08:40.580Z,91.40
2018-04-16T21:11:13.230Z,91.30
2018-04-16T21:13:46.628Z,91.50
2018-04-16T21:16:20.059Z,91.60
2018-04-16T21:18:52.671Z,91.60
2018-04-16T21:21:25.315Z,91.70
2018-04-16T21:23:57.910Z,91.80
2018-04-16T21:26:31.303Z,91.70
2018-04-16T21:29:03.904Z,91.70
2018-04-16T21:34:53.880Z,91.30
2018-04-16T21:37:26.495Z,91.40
2018-04-16T21:39:59.107Z,90.90
2018-04-16T21:42:31.750Z,90.90
2018-04-16T21:45:04.388Z,90.90
2018-04-16T21:47:37.022Z,90.90
2018-04-16T21:50:09.631Z,90.90
2018-04-16T21:52:42.275Z,90.80
2018-04-16T21:55:14.878Z,90.90
2018-04-16T21:57:48.263Z,91.40
2018-04-16T22:00:20.871Z,91.00
2018-04-16T22:02:53.510Z,91.10
2018-04-16T22:05:26.187Z,90.90
2018-04-16T22:07:58.833Z,90.80
2018-04-16T22:10:31.545Z,90.80
2018-04-16T22:13:04.979Z,90.80
2018-04-16T22:15:37.648Z,90.80
2018-04-16T22:18:10.271Z,90.80
2018-04-16T22:20:42.862Z,91.10
2018-04-16T22:23:15.492Z,90.80
2018-04-16T22:25:48.102Z,90.80
2018-04-16T22:28:21.667Z,90.60
2018-04-16T22:30:54.268Z,90.50
2018-04-16T22:33:26.914Z,90.80
2018-04-16T22:35:59.544Z,90.20
2018-04-16T22:38:32.178Z,90.10
2018-04-16T22:41:04.790Z,90.20
2018-04-16T22:43:38.195Z,90.20
2018-04-16T22:46:10.790Z,89.80
2018-04-16T22:48:43.431Z,89.10
2018-04-16T22:51:16.799Z,88.80
2018-04-16T22:53:50.202Z,88.80
2018-04-16T22:56:23.571Z,89.00
2018-04-16T22:58:56.238Z,89.00
2018-04-16T23:01:28.855Z,88.10
2018-04-16T23:04:01.513Z,88.70
2018-04-16T23:06:34.166Z,88.80
2018-04-16T23:09:06.811Z,88.90
2018-04-16T23:11:39.419Z,89.30
2018-04-16T23:14:12.044Z,88.80
2018-04-16T23:16:44.648Z,88.20
2018-04-16T23:19:18.056Z,88.10
2018-04-16T23:21:50.685Z,88.00
2018-04-16T23:24:23.410Z,88.40
2018-04-16T23:26:56.096Z,90.00
2018-04-16T23:29:28.743Z,89.60
2018-04-16T23:32:01.363Z,89.60
2018-04-16T23:34:33.983Z,90.00
2018-04-16T23:37:06.687Z,90.20
2018-04-16T23:39:53.304Z,90.30
2018-04-16T23:42:25.932Z,90.20
2018-04-16T23:44:58.568Z,90.10
2018-04-16T23:47:31.167Z,90.00
2018-04-16T23:50:03.811Z,90.20
2018-04-16T23:52:36.412Z,90.40
2018-04-16T23:55:09.035Z,90.50
2018-04-16T23:57:41.635Z,90.30
